createdAt,value
2018-06-25T00:02:17.427Z,15.30
2018-06-25T00:04:45.634Z,15.40
2018-06-25T00:07:13.835Z,15.30
2018-06-25T00:09:42.081Z,15.30
2018-06-25T00:12:10.382Z,15.30
2018-06-25T00:14:38.616Z,15.30
2018-06-25T00:17:07.128Z,15.30
2018-06-25T00:19:35.431Z,15.30
2018-06-25T00:22:03.671Z,15.20
2018-06-25T00:24:31.908Z,15.20
2018-06-25T00:27:00.151Z,15.20
2018-06-25T00:29:28.384Z,15.10
2018-06-25T00:31:56.649Z,15.00
2018-06-25T00:34:24.915Z,15.00
2018-06-25T00:36:53.211Z,15.00
2018-06-25T00:39:21.588Z,15.00
2018-06-25T00:41:49.820Z,14.90
2018-06-25T00:44:18.140Z,14.90
2018-06-25T00:46:46.434Z,14.90
2018-06-25T00:49:14.728Z,14.90
2018-06-25T00:51:43.082Z,14.90
2018-06-25T00:54:11.296Z,14.90
2018-06-25T00:56:39.537Z,14.90
2018-06-25T00:59:19.274Z,14.80
2018-06-25T01:01:47.535Z,14.70
2018-06-25T01:04:15.757Z,14.70
2018-06-25T01:06:44.099Z,14.70
2018-06-25T01:09:13.072Z,14.60
2018-06-25T01:11:41.633Z,14.60
2018-06-25T01:14:09.867Z,14.60
2018-06-25T01:16:38.151Z,14.50
2018-06-25T01:19:06.391Z,14.40
2018-06-25T01:21:34.619Z,14.40
2018-06-25T01:24:03.315Z,14.40
2018-06-25T01:26:31.648Z,14.30
2018-06-25T01:28:59.954Z,14.30
2018-06-25T01:31:28.544Z,14.30
2018-06-25T01:33:56.803Z,14.40
2018-06-25T01:36:25.087Z,14.30
2018-06-25T01:41:21.328Z,14.30
2018-06-25T01:43:49.710Z,14.30
2018-06-25T01:46:17.994Z,14.20
2018-06-25T01:48:46.287Z,14.10
2018-06-25T01:53:42.986Z,14.10
2018-06-25T01:56:11.240Z,14.20
2018-06-25T01:58:39.463Z,14.20
2018-06-25T02:01:07.676Z,14.10
2018-06-25T02:03:35.891Z,14.20
2018-06-25T02:06:04.140Z,14.20
2018-06-25T02:08:32.687Z,14.10
2018-06-25T02:11:00.995Z,14.10
2018-06-25T02:13:29.268Z,14.10
2018-06-25T02:15:57.575Z,14.10
2018-06-25T02:18:26.092Z,14.10
2018-06-25T02:20:54.333Z,14.20
2018-06-25T02:23:22.587Z,14.20
2018-06-25T02:25:51.296Z,14.20
2018-06-25T02:28:19.534Z,14.20
2018-06-25T02:30:47.774Z,14.10
2018-06-25T02:33:16.012Z,14.10
2018-06-25T02:35:44.754Z,14.10
2018-06-25T02:38:13.039Z,14.10
2018-06-25T02:40:41.299Z,14.10
2018-06-25T02:43:09.585Z,14.10
2018-06-25T02:45:37.834Z,14.00
2018-06-25T02:48:06.109Z,14.00
2018-06-25T02:50:34.374Z,14.00
2018-06-25T02:53:02.591Z,14.00
2018-06-25T02:55:30.785Z,14.00
2018-06-25T02:57:58.993Z,13.90
2018-06-25T03:00:27.340Z,13.90
2018-06-25T03:02:55.928Z,13.80
2018-06-25T03:05:24.235Z,13.70
2018-06-25T03:07:52.474Z,13.60
2018-06-25T03:10:21.029Z,13.50
2018-06-25T03:12:49.300Z,13.40
2018-06-25T03:15:17.621Z,13.40
2018-06-25T03:17:45.859Z,13.30
2018-06-25T03:20:14.123Z,13.30
2018-06-25T03:22:42.663Z,13.30
2018-06-25T03:25:10.875Z,13.20
2018-06-25T03:27:39.115Z,13.10
2018-06-25T03:30:07.337Z,13.10
2018-06-25T03:32:35.542Z,13.00
2018-06-25T03:35:03.872Z,13.00
2018-06-25T03:37:32.082Z,13.00
2018-06-25T03:40:00.283Z,13.00
2018-06-25T03:42:28.562Z,13.00
2018-06-25T03:44:56.828Z,13.00
2018-06-25T03:47:25.064Z,13.10
2018-06-25T03:49:56.247Z,13.20
2018-06-25T03:52:24.474Z,13.30
2018-06-25T03:54:52.745Z,13.40
2018-06-25T03:57:20.959Z,13.40
2018-06-25T03:59:49.188Z,13.40
2018-06-25T04:02:17.464Z,13.50
2018-06-25T04:04:45.680Z,13.60
2018-06-25T04:07:14.595Z,13.80
2018-06-25T04:09:42.927Z,13.90
2018-06-25T04:14:39.259Z,14.10
2018-06-25T04:17:07.479Z,14.20
2018-06-25T04:19:35.811Z,14.30
2018-06-25T04:22:04.099Z,14.50
2018-06-25T04:24:32.347Z,14.60
2018-06-25T04:27:00.592Z,14.60
2018-06-25T04:29:28.906Z,14.60
2018-06-25T04:31:57.576Z,14.70
2018-06-25T04:34:25.967Z,14.70
2018-06-25T04:36:54.203Z,14.70
2018-06-25T04:39:22.479Z,14.80
2018-06-25T04:41:50.684Z,14.80
2018-06-25T04:44:18.927Z,14.80
2018-06-25T04:46:47.628Z,14.80
2018-06-25T04:49:16.160Z,14.80
2018-06-25T04:51:44.393Z,14.90
2018-06-25T04:54:12.662Z,14.90
2018-06-25T04:56:40.876Z,14.90
2018-06-25T04:59:09.128Z,15.00
2018-06-25T05:01:37.525Z,15.00
2018-06-25T05:04:06.116Z,15.00
2018-06-25T05:06:34.321Z,15.00
2018-06-25T05:09:02.663Z,15.00
2018-06-25T05:11:30.916Z,15.00
2018-06-25T05:13:59.136Z,15.10
2018-06-25T05:16:27.424Z,15.20
2018-06-25T05:18:55.607Z,15.30
2018-06-25T05:21:23.951Z,15.30
2018-06-25T05:26:20.235Z,15.40
2018-06-25T05:28:48.476Z,15.50
2018-06-25T05:31:16.679Z,15.50
2018-06-25T05:33:44.928Z,15.60
2018-06-25T05:36:13.815Z,15.60
2018-06-25T05:38:42.084Z,15.70
2018-06-25T05:41:10.446Z,15.70
2018-06-25T05:43:38.697Z,15.70
2018-06-25T05:46:07.148Z,15.80
2018-06-25T05:48:35.663Z,15.70
2018-06-25T05:51:04.784Z,15.70
2018-06-25T05:53:33.086Z,15.70
2018-06-25T05:56:01.360Z,15.80
2018-06-25T05:58:29.629Z,15.80
2018-06-25T06:00:57.947Z,15.90
2018-06-25T06:03:26.169Z,15.90
2018-06-25T06:05:54.442Z,16.10
2018-06-25T06:08:22.719Z,16.20
2018-06-25T06:10:50.963Z,16.30
2018-06-25T06:13:19.193Z,16.50
2018-06-25T06:15:47.488Z,16.60
2018-06-25T06:18:15.888Z,16.80
2018-06-25T06:20:44.156Z,17.10
2018-06-25T06:23:12.744Z,17.40
2018-06-25T06:25:40.971Z,17.60
2018-06-25T06:28:16.026Z,17.90
2018-06-25T06:30:44.672Z,18.10
2018-06-25T06:33:13.755Z,18.30
2018-06-25T06:35:42.022Z,18.50
2018-06-25T06:38:10.251Z,18.70
2018-06-25T06:40:38.497Z,18.80
2018-06-25T06:43:06.731Z,18.90
2018-06-25T06:45:35.025Z,18.90
2018-06-25T06:48:03.275Z,19.00
2018-06-25T06:50:31.784Z,19.00
2018-06-25T06:53:00.607Z,19.40
2018-06-25T06:55:28.863Z,19.60
2018-06-25T06:57:57.123Z,19.70
2018-06-25T07:00:25.358Z,19.70
2018-06-25T07:02:53.627Z,19.60
2018-06-25T07:05:22.827Z,19.60
2018-06-25T07:07:51.061Z,19.60
2018-06-25T07:10:19.371Z,19.50
2018-06-25T07:12:47.634Z,19.70
2018-06-25T07:15:16.010Z,19.90
2018-06-25T07:17:44.645Z,20.20
2018-06-25T07:20:13.611Z,20.40
2018-06-25T07:22:41.849Z,20.90
2018-06-25T07:25:10.485Z,21.40
2018-06-25T07:27:39.391Z,21.20
2018-06-25T07:30:07.608Z,21.40
2018-06-25T07:32:35.839Z,21.50
2018-06-25T07:35:05.081Z,21.50
2018-06-25T07:37:33.391Z,21.50
2018-06-25T07:40:01.692Z,21.80
2018-06-25T07:42:29.955Z,21.90
2018-06-25T07:44:58.184Z,22.00
2018-06-25T07:47:27.407Z,21.80
2018-06-25T07:49:55.685Z,21.70
2018-06-25T07:52:23.884Z,21.70
2018-06-25T07:54:52.144Z,21.70
2018-06-25T07:57:20.410Z,21.50
2018-06-25T08:02:16.673Z,21.20
2018-06-25T08:04:44.949Z,20.90
2018-06-25T08:07:13.202Z,20.60
2018-06-25T08:09:41.777Z,20.50
2018-06-25T08:12:10.055Z,20.20
2018-06-25T08:14:38.277Z,19.90
2018-06-25T08:17:08.868Z,20.00
2018-06-25T08:19:37.119Z,20.00
2018-06-25T08:22:05.381Z,20.10
2018-06-25T08:24:33.606Z,20.20
2018-06-25T08:29:35.034Z,20.40
2018-06-25T08:32:03.275Z,20.50
2018-06-25T08:34:31.572Z,20.50
2018-06-25T08:36:59.897Z,20.40
2018-06-25T08:39:28.098Z,20.60
2018-06-25T08:41:56.683Z,20.60
2018-06-25T08:44:24.983Z,20.80
2018-06-25T08:46:53.317Z,21.10
2018-06-25T08:49:21.978Z,21.10
2018-06-25T08:51:50.219Z,21.40
2018-06-25T08:54:18.609Z,21.10
2018-06-25T08:56:46.910Z,21.10
2018-06-25T08:59:15.152Z,21.00
2018-06-25T09:01:43.581Z,21.10
2018-06-25T09:04:11.839Z,21.30
2018-06-25T09:06:40.076Z,21.60
2018-06-25T09:09:10.152Z,21.80
2018-06-25T09:11:38.433Z,22.10
2018-06-25T09:14:07.148Z,22.60
2018-06-25T09:16:35.627Z,23.20
2018-06-25T09:19:03.867Z,23.50
2018-06-25T09:21:32.187Z,23.50
2018-06-25T09:24:00.553Z,23.80
2018-06-25T09:26:28.790Z,23.90
2018-06-25T09:28:57.759Z,23.90
2018-06-25T09:31:26.011Z,23.80
2018-06-25T09:33:54.265Z,24.00
2018-06-25T09:36:22.505Z,23.80
2018-06-25T09:38:50.859Z,23.80
2018-06-25T09:41:19.170Z,23.40
2018-06-25T09:43:47.393Z,23.30
2018-06-25T09:46:15.658Z,23.00
2018-06-25T09:48:44.697Z,22.80
2018-06-25T09:51:12.946Z,23.00
2018-06-25T09:53:41.231Z,23.00
2018-06-25T09:56:09.482Z,23.20
2018-06-25T09:58:37.765Z,23.40
2018-06-25T10:01:11.750Z,23.50
2018-06-25T10:03:41.062Z,23.60
2018-06-25T10:06:09.442Z,24.00
2018-06-25T10:08:38.410Z,24.90
2018-06-25T10:11:06.762Z,26.10
2018-06-25T10:13:36.870Z,27.20
2018-06-25T10:16:05.111Z,28.10
2018-06-25T10:18:33.343Z,28.70
2018-06-25T10:21:01.616Z,28.90
2018-06-25T10:23:29.895Z,28.20
2018-06-25T10:25:58.152Z,27.50
2018-06-25T10:28:26.453Z,26.80
2018-06-25T10:30:54.660Z,26.10
2018-06-25T10:33:22.864Z,25.90
2018-06-25T10:35:51.108Z,25.90
2018-06-25T10:38:19.379Z,26.60
2018-06-25T10:40:47.615Z,26.20
2018-06-25T10:43:15.861Z,25.80
2018-06-25T10:45:44.824Z,26.20
2018-06-25T10:48:13.052Z,25.50
2018-06-25T10:50:41.241Z,25.50
2018-06-25T10:53:09.515Z,25.90
2018-06-25T10:55:37.836Z,25.80
2018-06-25T10:58:06.211Z,25.60
2018-06-25T11:00:34.385Z,25.20
2018-06-25T11:03:03.008Z,24.80
2018-06-25T11:05:31.277Z,24.60
2018-06-25T11:07:59.928Z,24.40
2018-06-25T11:10:28.158Z,24.70
2018-06-25T11:12:56.944Z,25.50
2018-06-25T11:15:25.238Z,26.30
2018-06-25T11:17:53.972Z,26.60
2018-06-25T11:20:22.212Z,27.00
2018-06-25T11:22:50.396Z,27.70
2018-06-25T11:25:18.643Z,28.20
2018-06-25T11:27:47.349Z,26.60
2018-06-25T11:30:15.559Z,25.80
2018-06-25T11:32:43.837Z,25.30
2018-06-25T11:35:12.063Z,25.90
2018-06-25T11:40:08.259Z,26.70
2018-06-25T11:42:36.839Z,26.20
2018-06-25T11:45:05.159Z,25.80
2018-06-25T11:47:33.435Z,25.70
2018-06-25T11:50:02.061Z,26.30
2018-06-25T11:52:30.299Z,27.30
2018-06-25T11:54:58.611Z,27.80
2018-06-25T11:57:26.856Z,28.00
2018-06-25T11:59:55.071Z,27.00
2018-06-25T12:02:23.327Z,26.20
2018-06-25T12:04:51.547Z,26.10
2018-06-25T12:07:19.794Z,26.20
2018-06-25T12:09:48.958Z,26.30
2018-06-25T12:12:17.633Z,26.40
2018-06-25T12:14:45.955Z,27.30
2018-06-25T12:17:14.276Z,28.60
2018-06-25T12:19:42.639Z,28.40
2018-06-25T12:22:10.917Z,27.40
2018-06-25T12:24:39.188Z,26.70
2018-06-25T12:27:07.460Z,26.00
2018-06-25T12:29:38.752Z,26.00
2018-06-25T12:32:07.064Z,26.70
2018-06-25T12:34:35.264Z,27.30
2018-06-25T12:37:03.500Z,27.00
2018-06-25T12:39:31.844Z,26.00
2018-06-25T12:42:00.082Z,25.60
2018-06-25T12:44:28.880Z,25.70
2018-06-25T12:46:57.115Z,25.70
2018-06-25T12:49:25.385Z,25.60
2018-06-25T12:51:53.636Z,25.30
2018-06-25T12:54:21.940Z,24.90
2018-06-25T12:56:50.319Z,24.70
2018-06-25T12:59:19.328Z,24.70
2018-06-25T13:01:48.143Z,24.70
2018-06-25T13:04:16.678Z,24.80
2018-06-25T13:06:44.908Z,25.50
2018-06-25T13:09:13.755Z,26.10
2018-06-25T13:11:41.984Z,26.00
2018-06-25T13:14:10.204Z,25.70
2018-06-25T13:16:38.563Z,25.70
2018-06-25T13:19:07.107Z,25.60
2018-06-25T13:21:35.295Z,25.40
2018-06-25T13:24:03.946Z,25.90
2018-06-25T13:26:32.280Z,26.30
2018-06-25T13:29:00.779Z,26.90
2018-06-25T13:31:29.423Z,27.00
2018-06-25T13:33:57.676Z,27.50
2018-06-25T13:36:26.211Z,28.10
2018-06-25T13:38:54.461Z,28.50
2018-06-25T13:41:22.804Z,28.90
2018-06-25T13:43:51.056Z,28.90
2018-06-25T13:46:19.322Z,29.00
2018-06-25T13:48:47.587Z,28.90
2018-06-25T13:51:16.337Z,28.70
2018-06-25T13:53:44.616Z,28.80
2018-06-25T13:56:12.888Z,28.70
2018-06-25T13:58:41.177Z,29.20
2018-06-25T14:01:09.976Z,29.30
2018-06-25T14:03:38.482Z,29.00
2018-06-25T14:06:06.709Z,29.00
2018-06-25T14:08:34.943Z,29.30
2018-06-25T14:11:03.184Z,28.40
2018-06-25T14:13:31.475Z,27.10
2018-06-25T14:15:59.691Z,26.70
2018-06-25T14:18:27.962Z,26.30
2018-06-25T14:20:56.248Z,25.70
2018-06-25T14:23:24.689Z,25.40
2018-06-25T14:25:58.401Z,25.70
2018-06-25T14:28:31.135Z,27.50
2018-06-25T14:31:05.475Z,29.20
2018-06-25T14:33:39.130Z,30.10
2018-06-25T14:36:08.516Z,30.30
2018-06-25T14:38:36.785Z,29.70
2018-06-25T14:41:05.097Z,30.60
2018-06-25T14:43:34.246Z,30.50
2018-06-25T14:46:04.076Z,30.60
2018-06-25T14:48:35.868Z,29.60
2018-06-25T14:51:04.133Z,28.60
2018-06-25T14:53:32.386Z,28.50
2018-06-25T14:56:00.758Z,28.60
2018-06-25T14:58:29.083Z,27.60
2018-06-25T15:00:57.383Z,26.80
2018-06-25T15:03:25.589Z,26.60
2018-06-25T15:05:53.839Z,27.60
2018-06-25T15:08:22.405Z,27.60
2018-06-25T15:10:50.622Z,26.70
2018-06-25T15:13:19.048Z,26.60
2018-06-25T15:15:47.327Z,28.10
2018-06-25T15:18:15.572Z,29.60
2018-06-25T15:20:44.506Z,30.60
2018-06-25T15:23:12.753Z,31.30
2018-06-25T15:25:41.076Z,31.20
2018-06-25T15:28:09.332Z,30.60
2018-06-25T15:30:37.552Z,29.60
2018-06-25T15:33:05.883Z,28.50
2018-06-25T15:35:34.104Z,27.50
2018-06-25T15:38:02.509Z,26.60
2018-06-25T15:40:30.663Z,26.50
2018-06-25T15:42:58.867Z,26.50
2018-06-25T15:45:27.119Z,26.70
2018-06-25T15:47:55.427Z,26.20
2018-06-25T15:50:23.602Z,25.80
2018-06-25T15:52:51.847Z,25.50
2018-06-25T15:55:20.111Z,25.30
2018-06-25T15:57:48.327Z,25.10
2018-06-25T16:00:16.592Z,24.80
2018-06-25T16:02:44.968Z,24.60
2018-06-25T16:05:13.239Z,24.40
2018-06-25T16:07:42.007Z,24.00
2018-06-25T16:10:10.342Z,23.80
2018-06-25T16:12:38.556Z,23.70
2018-06-25T16:15:07.344Z,23.60
2018-06-25T16:17:35.601Z,23.60
2018-06-25T16:20:03.930Z,23.60
2018-06-25T16:22:32.124Z,23.60
2018-06-25T16:25:00.550Z,23.60
2018-06-25T16:27:33.237Z,23.70
2018-06-25T16:30:01.656Z,23.70
2018-06-25T16:32:29.962Z,23.80
2018-06-25T16:34:58.246Z,23.90
2018-06-25T16:37:26.568Z,24.10
2018-06-25T16:39:54.835Z,24.50
2018-06-25T16:42:23.064Z,24.80
2018-06-25T16:44:51.765Z,24.90
2018-06-25T16:47:20.129Z,24.80
2018-06-25T16:49:48.341Z,24.70
2018-06-25T16:52:16.680Z,25.20
2018-06-25T16:54:44.959Z,26.20
2018-06-25T16:57:13.193Z,26.50
2018-06-25T16:59:41.570Z,27.00
2018-06-25T17:02:09.795Z,27.60
2018-06-25T17:04:38.516Z,28.10
2018-06-25T17:07:06.848Z,28.40
2018-06-25T17:09:35.113Z,28.80
2018-06-25T17:12:03.439Z,28.10
2018-06-25T17:14:31.709Z,27.40
2018-06-25T17:16:59.967Z,26.90
2018-06-25T17:19:28.184Z,26.40
2018-06-25T17:22:03.180Z,26.20
2018-06-25T17:24:31.904Z,26.00
2018-06-25T17:27:00.208Z,25.70
2018-06-25T17:29:29.187Z,25.30
2018-06-25T17:31:58.417Z,25.10
2018-06-25T17:34:27.331Z,25.20
2018-06-25T17:36:56.268Z,24.90
2018-06-25T17:39:25.448Z,24.70
2018-06-25T17:41:53.700Z,24.30
2018-06-25T17:44:22.048Z,23.80
2018-06-25T17:46:50.387Z,23.70
2018-06-25T17:49:19.116Z,23.60
2018-06-25T17:51:47.411Z,23.30
2018-06-25T17:54:15.681Z,22.90
2018-06-25T17:56:44.098Z,22.50
2018-06-25T17:59:12.427Z,22.30
2018-06-25T18:01:40.657Z,22.10
2018-06-25T18:04:08.891Z,21.80
2018-06-25T18:06:37.104Z,21.60
2018-06-25T18:09:07.576Z,21.60
2018-06-25T18:11:35.784Z,21.50
2018-06-25T18:14:04.064Z,21.40
2018-06-25T18:16:32.271Z,21.40
2018-06-25T18:19:01.299Z,21.30
2018-06-25T18:21:29.602Z,21.20
2018-06-25T18:23:57.877Z,21.00
2018-06-25T18:26:26.064Z,20.90
2018-06-25T18:28:54.268Z,21.00
2018-06-25T18:31:22.926Z,20.90
2018-06-25T18:33:51.205Z,20.80
2018-06-25T18:36:19.432Z,20.60
2018-06-25T18:38:47.797Z,20.50
2018-06-25T18:41:16.326Z,20.30
2018-06-25T18:43:44.575Z,20.10
2018-06-25T18:46:12.816Z,19.90
2018-06-25T18:48:41.090Z,19.80
2018-06-25T18:51:09.549Z,19.60
2018-06-25T18:53:37.765Z,19.50
2018-06-25T18:56:05.997Z,19.30
2018-06-25T18:58:34.279Z,19.20
2018-06-25T19:01:02.525Z,19.20
2018-06-25T19:03:30.795Z,19.10
2018-06-25T19:05:59.424Z,19.10
2018-06-25T19:08:27.674Z,19.10
2018-06-25T19:10:55.911Z,19.00
2018-06-25T19:13:24.592Z,19.00
2018-06-25T19:15:52.943Z,19.00
2018-06-25T19:18:21.162Z,18.90
2018-06-25T19:20:49.410Z,18.90
2018-06-25T19:23:17.645Z,18.80
2018-06-25T19:25:46.006Z,18.80
2018-06-25T19:28:14.260Z,18.70
2018-06-25T19:30:42.563Z,18.60
2018-06-25T19:33:11.061Z,18.50
2018-06-25T19:35:39.290Z,18.40
2018-06-25T19:38:07.599Z,18.40
2018-06-25T19:40:35.784Z,18.30
2018-06-25T19:43:04.027Z,18.20
2018-06-25T19:45:32.279Z,18.00
2018-06-25T19:48:00.561Z,17.90
2018-06-25T19:50:28.817Z,17.90
2018-06-25T19:52:57.041Z,17.90
2018-06-25T19:55:25.359Z,17.90
2018-06-25T19:57:53.643Z,17.80
2018-06-25T20:00:21.882Z,18.00
2018-06-25T20:02:50.156Z,18.10
2018-06-25T20:05:18.439Z,18.10
2018-06-25T20:07:46.946Z,18.10
2018-06-25T20:10:15.445Z,18.10
2018-06-25T20:12:43.823Z,18.00
2018-06-25T20:15:12.468Z,17.80
2018-06-25T20:17:40.770Z,17.90
2018-06-25T20:20:09.300Z,17.90
2018-06-25T20:22:44.156Z,17.80
2018-06-25T20:25:12.536Z,17.80
2018-06-25T20:27:40.903Z,17.80
2018-06-25T20:30:09.377Z,17.80
2018-06-25T20:32:37.877Z,17.80
2018-06-25T20:35:07.174Z,17.70
2018-06-25T20:37:35.439Z,17.60
2018-06-25T20:40:03.900Z,17.70
2018-06-25T20:42:32.134Z,17.70
2018-06-25T20:45:00.482Z,17.80
2018-06-25T20:47:28.739Z,17.90
2018-06-25T20:49:57.003Z,17.90
2018-06-25T20:52:25.233Z,17.90
2018-06-25T20:54:53.531Z,17.90
2018-06-25T20:57:21.827Z,17.90
2018-06-25T20:59:50.101Z,17.90
2018-06-25T21:02:19.089Z,17.90
2018-06-25T21:04:47.343Z,17.80
2018-06-25T21:07:15.580Z,17.80
2018-06-25T21:09:43.849Z,17.80
2018-06-25T21:12:12.840Z,17.70
2018-06-25T21:14:41.076Z,17.70
2018-06-25T21:17:11.512Z,17.70
2018-06-25T21:19:39.821Z,17.70
2018-06-25T21:22:08.223Z,17.80
2018-06-25T21:24:36.508Z,17.80
2018-06-25T21:27:04.776Z,17.80
2018-06-25T21:29:32.989Z,17.70
2018-06-25T21:32:01.258Z,17.60
2018-06-25T21:34:29.501Z,17.60
2018-06-25T21:36:57.800Z,17.40
2018-06-25T21:39:26.015Z,17.30
2018-06-25T21:41:54.280Z,17.10
2018-06-25T21:44:22.535Z,17.00
2018-06-25T21:46:50.809Z,16.80
2018-06-25T21:49:19.245Z,16.60
2018-06-25T21:51:47.571Z,16.40
2018-06-25T21:54:17.807Z,16.20
2018-06-25T21:56:46.051Z,16.10
2018-06-25T21:59:14.279Z,15.90
2018-06-25T22:01:42.556Z,15.60
2018-06-25T22:04:10.769Z,15.40
2018-06-25T22:06:40.708Z,15.20
2018-06-25T22:09:09.715Z,15.10
2018-06-25T22:11:37.994Z,15.10
2018-06-25T22:14:06.360Z,15.10
2018-06-25T22:16:34.600Z,15.00
2018-06-25T22:19:02.873Z,15.10
2018-06-25T22:21:31.122Z,15.00
2018-06-25T22:26:27.348Z,15.00
2018-06-25T22:28:55.613Z,15.00
2018-06-25T22:31:23.928Z,15.00
2018-06-25T22:33:52.204Z,15.00
2018-06-25T22:36:20.432Z,15.10
2018-06-25T22:38:48.682Z,15.10
2018-06-25T22:41:16.977Z,15.00
2018-06-25T22:43:45.357Z,15.00
2018-06-25T22:46:13.744Z,14.90
2018-06-25T22:48:42.147Z,14.90
2018-06-25T22:51:10.438Z,14.70
2018-06-25T22:53:38.727Z,14.70
2018-06-25T22:56:07.000Z,14.60
2018-06-25T22:58:35.549Z,14.40
2018-06-25T23:01:03.860Z,14.30
2018-06-25T23:03:32.160Z,14.20
2018-06-25T23:06:00.423Z,14.10
2018-06-25T23:08:28.869Z,14.00
2018-06-25T23:10:57.139Z,14.00
2018-06-25T23:13:25.407Z,13.90
2018-06-25T23:15:53.666Z,13.90
2018-06-25T23:18:22.735Z,13.80
2018-06-25T23:20:50.961Z,13.80
2018-06-25T23:25:47.235Z,13.80
2018-06-25T23:28:15.915Z,13.80
2018-06-25T23:30:44.150Z,13.80
2018-06-25T23:33:12.399Z,13.80
2018-06-25T23:35:40.588Z,13.80
2018-06-25T23:38:08.863Z,13.90
2018-06-25T23:40:37.132Z,13.90
2018-06-25T23:43:05.752Z,14.00
2018-06-25T23:45:34.039Z,14.00
2018-06-25T23:48:02.324Z,13.90
2018-06-25T23:50:30.559Z,13.80
2018-06-25T23:52:58.811Z,13.70
2018-06-25T23:55:27.552Z,13.60
2018-06-25T23:57:55.848Z,13.60
